Plano's Hourly Summary for Monday, March 13, 2017
Hour Temp
(f)
RH
(%)
Solar Rad.
(MJ/m2)
Rainfall
(in)
Wind
(mph)
3/13/2017 12:00 AM 48 71 0 0 3.39
3/13/2017 1:00 AM 48 75 0 0 2.77
3/13/2017 2:00 AM 48 74 0 0 2.08
3/13/2017 3:00 AM 48 75 0 0 2.94
3/13/2017 4:00 AM 48 77 0 0 2.82
3/13/2017 5:00 AM 48 80 0 0 1.4
3/13/2017 6:00 AM 47 85 0 0 3.4
3/13/2017 7:00 AM 47 84 0 0 1.83
3/13/2017 8:00 AM 47 83 0.01 0 1.63
3/13/2017 9:00 AM 48 79 0.05 0 0.68
3/13/2017 10:00 AM 49 75 0.25 0 1.94
3/13/2017 11:00 AM 51 66 0.99 0 4.67
3/13/2017 12:00 PM 52 65 1.15 0 5.6
3/13/2017 1:00 PM 53 60 1.34 0 6.89
3/13/2017 2:00 PM 56 50 3.03 0 6.5
3/13/2017 3:00 PM 60 40 2.74 0 6.11
3/13/2017 4:00 PM 60 36 2.59 0 7.44
3/13/2017 5:00 PM 60 31 2.07 0 7.84
3/13/2017 6:00 PM 59 31 1.37 0 7.49
3/13/2017 7:00 PM 57 28 0.61 0 6.52
3/13/2017 8:00 PM 53 31 0.04 0 5.44
3/13/2017 9:00 PM 50 31 0 0 4.84
3/13/2017 10:00 PM 48 33 0 0 4.95
3/13/2017 11:00 PM 46 37 0 0 5.21
Data Summary 51 58 16.24 0.00 4.35